PWSweather.com
Personal Weather Stations
Station Observations
AS787
Cloppers Mill East, Germantown, MD 20874-2154

Cloppers Mill EastGermantown, MD 20874-2154

Lat: 39.1522, Lon: -77.2679

Elevation: 318

Station Type: 1-Wire

http://www.cloppermillweather.org/

High Low Average
Temperature 38.4°F3.6°C 18.3°F-7.6°C 27.3°F-2.6°C
Dew Point 36.5°F2.5°C 3.8°F-15.7°C 14.7°F-9.6°C
Winds 4.2 mph 6.8 kmh Calm Calm 2.0 mph SE3.2 kmh SE
Wind Gusts 16.0 mph25.7 kmh -- 7.0 mph11.3 kmh
Humidity 94% 42% 60%
Pressure 30.42 in1030.1 mb 29.90 in1012.5 mb -
Precipitation 0.00 in0.0 mm - -
Hour Temp Dew Point Humidity Winds Wind Gusts Pressure Precip Precip Rate Daily Precip Total
12:14 AM 40.8°F4.9°C 38.6°F3.7°C 92% 0.1 mph SSW0.2 kmh SSW 2.0 mph3.2 kmh 29.90 in1012.5 mb 0.01 in0.3 mm 0.04 in1.0 mm 0.01 in0.3 mm
12:44 AM 39.7°F4.3°C 37.6°F3.1°C 92% 1.1 mph NNE1.8 kmh NNE 4.0 mph6.4 kmh 29.90 in1012.5 mb 0.03 in0.8 mm 0.04 in1.0 mm 0.03 in0.8 mm
01:14 AM 38.4°F3.6°C 36.5°F2.5°C 93% 0.8 mph NNE1.3 kmh NNE 4.0 mph6.4 kmh 29.90 in1012.5 mb 0.01 in0.3 mm 0.00 in0.0 mm 0.03 in0.8 mm
01:44 AM 38.0°F3.3°C 36.2°F2.3°C 93% Calm Calm -- 29.90 in1012.5 mb 0.03 in0.8 mm 0.04 in1.0 mm 0.05 in1.3 mm
02:14 AM 37.9°F3.3°C 36.0°F2.2°C 93% Calm Calm -- 29.91 in1012.9 mb 0.00 in0.0 mm 0.00 in0.0 mm 0.05 in1.3 mm
02:44 AM 37.6°F3.1°C 36.0°F2.2°C 94% Calm Calm -- 29.90 in1012.5 mb 0.00 in0.0 mm 0.00 in0.0 mm 0.05 in1.3 mm
03:14 AM 37.3°F2.9°C 35.7°F2.1°C 94% Calm Calm 1.0 mph1.6 kmh 29.90 in1012.5 mb 0.00 in0.0 mm 0.00 in0.0 mm 0.05 in1.3 mm
03:44 AM 37.1°F2.8°C 35.5°F1.9°C 94% Calm Calm -- 29.90 in1012.5 mb 0.00 in0.0 mm 0.00 in0.0 mm 0.05 in1.3 mm
04:14 AM 36.9°F2.7°C 35.3°F1.8°C 94% Calm Calm -- 29.91 in1012.9 mb 0.00 in0.0 mm 0.00 in0.0 mm 0.05 in1.3 mm
04:44 AM 36.8°F2.7°C 35.1°F1.7°C 93% 0.5 mph SSE0.8 kmh SSE 6.0 mph9.7 kmh 29.94 in1013.9 mb 0.00 in0.0 mm 0.00 in0.0 mm 0.05 in1.3 mm
05:14 AM 35.8°F2.1°C 29.9°F-1.2°C 79% 2.5 mph 4.0 kmh 9.0 mph14.5 kmh 29.96 in1014.6 mb 0.00 in0.0 mm 0.00 in0.0 mm 0.05 in1.3 mm
05:44 AM 34.5°F1.4°C 26.9°F-2.8°C 73% 0.2 mph 0.3 kmh 6.0 mph9.7 kmh 29.98 in1015.2 mb 0.00 in0.0 mm 0.00 in0.0 mm 0.05 in1.3 mm
06:14 AM 33.9°F1.1°C 25.8°F-3.4°C 72% 1.7 mph NNW2.7 kmh NNW 7.0 mph11.3 kmh 30.00 in1015.9 mb 0.00 in0.0 mm 0.00 in0.0 mm 0.05 in1.3 mm
06:44 AM 33.0°F0.6°C 22.4°F-5.3°C 65% 2.5 mph NNE4.0 kmh NNE 5.0 mph8.0 kmh 30.01 in1016.3 mb 0.00 in0.0 mm 0.00 in0.0 mm 0.05 in1.3 mm
07:14 AM 31.1°F-0.5°C 18.5°F-7.5°C 59% 1.7 mph SSE2.7 kmh SSE 7.0 mph11.3 kmh 30.05 in1017.6 mb 0.00 in0.0 mm 0.00 in0.0 mm 0.05 in1.3 mm
07:44 AM 29.9°F-1.2°C 17.8°F-7.9°C 60% 1.6 mph SE2.6 kmh SE 8.0 mph12.9 kmh 30.06 in1017.9 mb 0.00 in0.0 mm 0.00 in0.0 mm 0.05 in1.3 mm
08:14 AM 29.2°F-1.6°C 18.2°F-7.7°C 63% 0.5 mph NNW0.8 kmh NNW 4.0 mph6.4 kmh 30.07 in1018.3 mb 0.00 in0.0 mm 0.00 in0.0 mm 0.05 in1.3 mm
08:44 AM 28.6°F-1.9°C 16.4°F-8.7°C 60% 0.6 mph 1.0 kmh 5.0 mph8.0 kmh 30.10 in1019.3 mb 0.00 in0.0 mm 0.00 in0.0 mm 0.05 in1.3 mm
09:14 AM 28.3°F-2.1°C 16.6°F-8.6°C 61% 3.5 mph NNW5.6 kmh NNW 9.0 mph14.5 kmh 30.13 in1020.3 mb 0.00 in0.0 mm 0.00 in0.0 mm 0.05 in1.3 mm
09:44 AM 27.7°F-2.4°C 15.0°F-9.4°C 59% 4.1 mph SSE6.6 kmh SSE 11.0 mph17.7 kmh 30.14 in1020.7 mb 0.00 in0.0 mm 0.00 in0.0 mm 0.05 in1.3 mm
10:14 AM 27.0°F-2.8°C 13.1°F-10.5°C 56% 3.9 mph SE6.3 kmh SE 9.0 mph14.5 kmh 30.17 in1021.7 mb 0.00 in0.0 mm 0.00 in0.0 mm 0.05 in1.3 mm
10:44 AM 27.0°F-2.8°C 14.0°F-10.0°C 58% 3.6 mph NNW5.8 kmh NNW 10.0 mph16.1 kmh 30.18 in1022.0 mb 0.00 in0.0 mm 0.00 in0.0 mm 0.05 in1.3 mm
11:14 AM 27.2°F-2.7°C 12.9°F-10.6°C 55% 3.0 mph SE4.8 kmh SE 10.0 mph16.1 kmh 30.20 in1022.7 mb 0.00 in0.0 mm 0.00 in0.0 mm 0.05 in1.3 mm
11:44 AM 27.6°F-2.4°C 13.2°F-10.4°C 54% 2.5 mph 4.0 kmh 9.0 mph14.5 kmh 30.20 in1022.7 mb 0.00 in0.0 mm 0.00 in0.0 mm 0.05 in1.3 mm
12:14 PM 27.2°F-2.7°C 13.3°F-10.4°C 55% 2.3 mph 3.7 kmh 9.0 mph14.5 kmh 30.22 in1023.4 mb 0.00 in0.0 mm 0.00 in0.0 mm 0.05 in1.3 mm
12:44 PM 26.9°F-2.8°C 10.5°F-11.9°C 50% 2.4 mph 3.9 kmh 8.0 mph12.9 kmh 30.23 in1023.7 mb 0.00 in0.0 mm 0.00 in0.0 mm 0.05 in1.3 mm
01:14 PM 26.1°F-3.3°C 11.1°F-11.6°C 53% 4.2 mph NNE6.8 kmh NNE 9.0 mph14.5 kmh 30.23 in1023.7 mb 0.00 in0.0 mm 0.00 in0.0 mm 0.05 in1.3 mm
01:44 PM 26.5°F-3.1°C 9.1°F-12.7°C 47% 2.9 mph NNW4.7 kmh NNW 8.0 mph12.9 kmh 30.24 in1024.0 mb 0.00 in0.0 mm 0.00 in0.0 mm 0.05 in1.3 mm
02:14 PM 26.5°F-3.1°C 6.8°F-14.0°C 43% 3.9 mph 6.3 kmh 12.0 mph19.3 kmh 30.24 in1024.0 mb 0.00 in0.0 mm 0.00 in0.0 mm 0.05 in1.3 mm
02:44 PM 27.3°F-2.6°C 7.6°F-13.6°C 43% 2.9 mph S4.7 kmh S 16.0 mph25.7 kmh 30.25 in1024.4 mb 0.00 in0.0 mm 0.00 in0.0 mm 0.05 in1.3 mm
03:14 PM 26.6°F-3.0°C 6.6°F-14.1°C 42% 0.8 mph 1.3 kmh 9.0 mph14.5 kmh 30.25 in1024.4 mb 0.00 in0.0 mm 0.00 in0.0 mm 0.05 in1.3 mm
03:44 PM 27.0°F-2.8°C 7.0°F-13.9°C 42% 3.0 mph SSE4.8 kmh SSE 8.0 mph12.9 kmh 30.27 in1025.1 mb 0.00 in0.0 mm 0.00 in0.0 mm 0.05 in1.3 mm
04:14 PM 24.6°F-4.1°C 5.3°F-14.8°C 43% 2.1 mph SSE3.4 kmh SSE 10.0 mph16.1 kmh 30.29 in1025.7 mb 0.00 in0.0 mm 0.00 in0.0 mm 0.05 in1.3 mm
04:44 PM 24.7°F-4.1°C 5.4°F-14.8°C 43% 1.9 mph NE3.1 kmh NE 10.0 mph16.1 kmh 30.30 in1026.1 mb 0.00 in0.0 mm 0.00 in0.0 mm 0.05 in1.3 mm
05:14 PM 25.4°F-3.7°C 5.5°F-14.7°C 42% 1.5 mph 2.4 kmh 7.0 mph11.3 kmh 30.30 in1026.1 mb 0.00 in0.0 mm 0.00 in0.0 mm 0.05 in1.3 mm
05:44 PM 23.3°F-4.8°C 4.3°F-15.4°C 44% 3.7 mph SE6.0 kmh SE 10.0 mph16.1 kmh 30.32 in1026.8 mb 0.00 in0.0 mm 0.00 in0.0 mm 0.05 in1.3 mm
06:14 PM 22.5°F-5.3°C 4.0°F-15.6°C 45% 2.5 mph SE4.0 kmh SE 10.0 mph16.1 kmh 30.32 in1026.8 mb 0.00 in0.0 mm 0.00 in0.0 mm 0.05 in1.3 mm
06:44 PM 21.7°F-5.7°C 4.5°F-15.3°C 47% 0.7 mph SE1.1 kmh SE 6.0 mph9.7 kmh 30.34 in1027.4 mb 0.00 in0.0 mm 0.00 in0.0 mm 0.05 in1.3 mm
07:14 PM 21.1°F-6.1°C 4.1°F-15.5°C 48% 2.0 mph SSE3.2 kmh SSE 12.0 mph19.3 kmh 30.35 in1027.8 mb 0.00 in0.0 mm 0.00 in0.0 mm 0.05 in1.3 mm
07:44 PM 20.4°F-6.4°C 4.3°F-15.4°C 49% 0.4 mph SSE0.6 kmh SSE 2.0 mph3.2 kmh 30.36 in1028.1 mb 0.00 in0.0 mm 0.00 in0.0 mm 0.05 in1.3 mm
08:14 PM 20.3°F-6.5°C 3.9°F-15.6°C 49% 0.7 mph NNW1.1 kmh NNW 5.0 mph8.0 kmh 30.37 in1028.4 mb 0.00 in0.0 mm 0.00 in0.0 mm 0.05 in1.3 mm
08:44 PM 19.9°F-6.7°C 3.8°F-15.7°C 49% 1.0 mph SE1.6 kmh SE 5.0 mph8.0 kmh 30.38 in1028.8 mb 0.00 in0.0 mm 0.00 in0.0 mm 0.05 in1.3 mm
09:14 PM 19.6°F-6.9°C 4.1°F-15.5°C 51% 0.4 mph SE0.6 kmh SE 3.0 mph4.8 kmh 30.39 in1029.1 mb 0.00 in0.0 mm 0.00 in0.0 mm 0.05 in1.3 mm
09:44 PM 19.4°F-7.0°C 4.4°F-15.3°C 52% Calm Calm 4.0 mph6.4 kmh 30.40 in1029.5 mb 0.00 in0.0 mm 0.00 in0.0 mm 0.05 in1.3 mm
10:14 PM 19.4°F-7.0°C 4.5°F-15.3°C 52% 1.7 mph S2.7 kmh S 7.0 mph11.3 kmh 30.41 in1029.8 mb 0.00 in0.0 mm 0.00 in0.0 mm 0.05 in1.3 mm
10:44 PM 19.2°F-7.1°C 4.8°F-15.1°C 53% 0.8 mph ESE1.3 kmh ESE 5.0 mph8.0 kmh 30.42 in1030.1 mb 0.00 in0.0 mm 0.00 in0.0 mm 0.05 in1.3 mm
11:14 PM 18.9°F-7.3°C 5.3°F-14.8°C 55% 1.0 mph NE1.6 kmh NE 4.0 mph6.4 kmh 30.42 in1030.1 mb 0.00 in0.0 mm 0.00 in0.0 mm 0.05 in1.3 mm
11:44 PM 18.6°F-7.4°C 5.1°F-14.9°C 55% 0.6 mph ESE1.0 kmh ESE 4.0 mph6.4 kmh 30.42 in1030.1 mb 0.00 in0.0 mm 0.00 in0.0 mm 0.05 in1.3 mm